createdAt,value
2022-11-07T00:01:59.781Z,21.16
2022-11-07T00:04:01.160Z,21.13
2022-11-07T00:06:02.433Z,21.12
2022-11-07T00:08:03.909Z,21.10
2022-11-07T00:10:05.217Z,21.11
2022-11-07T00:12:06.553Z,21.11
2022-11-07T00:14:07.887Z,21.11
2022-11-07T00:16:09.193Z,21.12
2022-11-07T00:18:10.497Z,21.14
2022-11-07T00:20:11.760Z,21.16
2022-11-07T00:22:13.033Z,21.20
2022-11-07T00:24:14.417Z,21.24
2022-11-07T00:26:15.757Z,21.28
2022-11-07T00:28:17.061Z,21.28
2022-11-07T00:30:18.769Z,21.30
2022-11-07T00:32:22.130Z,21.29
2022-11-07T00:34:23.425Z,21.32
2022-11-07T00:36:24.768Z,21.32
2022-11-07T00:38:26.050Z,21.32
2022-11-07T00:40:27.354Z,21.32
2022-11-07T00:42:28.637Z,21.32
2022-11-07T00:44:29.942Z,21.32
2022-11-07T00:46:31.222Z,19.97
2022-11-07T00:48:32.585Z,21.32
2022-11-07T00:50:33.897Z,21.32
2022-11-07T00:52:35.177Z,21.30
2022-11-07T00:54:36.486Z,21.27
2022-11-07T00:56:37.817Z,21.22
2022-11-07T00:58:39.147Z,21.21
2022-11-07T01:00:40.429Z,21.18
2022-11-07T01:02:41.881Z,21.15
2022-11-07T01:05:02.093Z,21.12
2022-11-07T01:07:03.575Z,21.10
2022-11-07T01:09:04.853Z,21.08
2022-11-07T01:11:06.150Z,21.06
2022-11-07T01:13:07.426Z,21.03
2022-11-07T01:15:08.706Z,20.98
2022-11-07T01:17:10.184Z,20.98
2022-11-07T01:19:11.467Z,20.93
2022-11-07T01:21:16.511Z,20.88
2022-11-07T01:23:18.424Z,20.84
2022-11-07T01:25:19.964Z,20.83
2022-11-07T01:27:21.257Z,20.80
2022-11-07T01:29:22.765Z,20.78
2022-11-07T01:31:24.113Z,20.80
2022-11-07T01:33:25.433Z,20.81
2022-11-07T01:35:26.738Z,20.82
2022-11-07T01:37:28.027Z,20.68
2022-11-07T01:39:29.301Z,20.87
2022-11-07T01:41:30.593Z,20.93
2022-11-07T01:43:32.514Z,20.98
2022-11-07T01:45:33.864Z,21.01
2022-11-07T01:47:35.161Z,21.06
2022-11-07T01:49:36.454Z,21.12
2022-11-07T01:51:37.722Z,21.12
2022-11-07T01:53:38.998Z,21.12
2022-11-07T01:55:40.264Z,21.18
2022-11-07T01:57:41.541Z,21.20
2022-11-07T01:59:42.816Z,21.23
2022-11-07T02:01:44.299Z,21.23
2022-11-07T02:03:45.702Z,21.25
2022-11-07T02:05:46.981Z,21.24
2022-11-07T02:07:48.295Z,21.26
2022-11-07T02:09:49.627Z,21.26
2022-11-07T02:11:50.913Z,21.25
2022-11-07T02:13:52.282Z,21.25
2022-11-07T02:15:53.638Z,21.27
2022-11-07T02:17:54.925Z,21.25
2022-11-07T02:19:56.781Z,21.25
2022-11-07T02:21:58.077Z,21.24
2022-11-07T02:23:59.384Z,21.21
2022-11-07T02:26:00.718Z,21.17
2022-11-07T02:28:02.000Z,21.14
2022-11-07T02:30:03.293Z,21.10
2022-11-07T02:32:04.608Z,21.07
2022-11-07T02:34:05.919Z,21.03
2022-11-07T02:36:07.189Z,21.00
2022-11-07T02:38:08.448Z,20.96
2022-11-07T02:40:09.747Z,20.95
2022-11-07T02:42:11.016Z,20.93
2022-11-07T02:44:12.313Z,20.89
2022-11-07T02:46:13.628Z,20.90
2022-11-07T02:48:14.896Z,20.96
2022-11-07T02:50:16.205Z,20.97
2022-11-07T02:52:17.491Z,20.94
2022-11-07T02:54:18.773Z,20.93
2022-11-07T02:56:20.056Z,20.91
2022-11-07T02:58:21.327Z,20.89
2022-11-07T03:00:22.623Z,20.85
2022-11-07T03:02:23.975Z,20.83
2022-11-07T03:04:25.439Z,20.81
2022-11-07T03:06:26.792Z,20.77
2022-11-07T03:08:28.090Z,20.76
2022-11-07T03:10:29.348Z,20.74
2022-11-07T03:12:30.920Z,20.76
2022-11-07T03:14:32.299Z,20.81
2022-11-07T03:16:33.629Z,20.87
2022-11-07T03:18:34.913Z,20.92
2022-11-07T03:20:36.265Z,21.02
2022-11-07T03:22:37.548Z,21.12
2022-11-07T03:24:38.869Z,21.18
2022-11-07T03:26:40.358Z,21.24
2022-11-07T03:28:41.635Z,21.28
2022-11-07T03:30:42.911Z,21.31
2022-11-07T03:32:44.213Z,21.35
2022-11-07T03:34:45.541Z,21.38
2022-11-07T03:36:46.819Z,21.43
2022-11-07T03:38:48.124Z,21.44
2022-11-07T03:40:49.610Z,21.46
2022-11-07T03:42:50.906Z,21.46
2022-11-07T03:44:52.213Z,21.45
2022-11-07T03:46:54.016Z,21.45
2022-11-07T03:48:55.280Z,21.44
2022-11-07T03:50:56.566Z,21.42
2022-11-07T03:52:57.849Z,21.41
2022-11-07T03:54:59.124Z,21.40
2022-11-07T03:57:00.441Z,21.38
2022-11-07T03:59:01.971Z,21.37
2022-11-07T04:01:03.248Z,21.33
2022-11-07T04:03:04.666Z,21.29
2022-11-07T04:05:06.032Z,21.26
2022-11-07T04:07:07.309Z,21.20
2022-11-07T04:09:08.591Z,21.16
2022-11-07T04:11:29.857Z,21.14
2022-11-07T04:13:50.137Z,21.11
2022-11-07T04:16:14.990Z,21.10
2022-11-07T04:18:18.609Z,21.06
2022-11-07T04:20:19.905Z,21.04
2022-11-07T04:22:21.212Z,21.01
2022-11-07T04:24:22.467Z,20.95
2022-11-07T04:26:50.081Z,20.91
2022-11-07T04:28:51.565Z,20.86
2022-11-07T04:30:52.866Z,20.83
2022-11-07T04:32:55.066Z,20.82
2022-11-07T04:34:56.400Z,20.78
2022-11-07T04:36:57.877Z,20.75
2022-11-07T04:38:59.368Z,20.76
2022-11-07T04:41:00.630Z,20.77
2022-11-07T04:43:03.965Z,20.78
2022-11-07T04:45:05.278Z,20.80
2022-11-07T04:47:06.566Z,20.87
2022-11-07T04:49:07.836Z,20.96
2022-11-07T04:51:09.192Z,21.06
2022-11-07T04:53:10.480Z,21.13
2022-11-07T04:55:11.748Z,21.19
2022-11-07T04:57:13.336Z,21.24
2022-11-07T04:59:14.675Z,21.29
2022-11-07T05:01:15.989Z,21.29
2022-11-07T05:03:17.818Z,21.28
2022-11-07T05:05:19.368Z,21.26
2022-11-07T05:07:20.657Z,21.27
2022-11-07T05:09:21.927Z,21.23
2022-11-07T05:11:23.212Z,21.20
2022-11-07T05:13:24.523Z,21.18
2022-11-07T05:15:25.816Z,21.18
2022-11-07T05:17:28.207Z,21.14
2022-11-07T05:19:29.591Z,21.07
2022-11-07T05:21:30.880Z,21.06
2022-11-07T05:23:32.232Z,21.05
2022-11-07T05:25:33.578Z,21.02
2022-11-07T05:27:34.901Z,20.98
2022-11-07T05:29:36.170Z,20.94
2022-11-07T05:31:37.446Z,20.91
2022-11-07T05:33:38.822Z,20.90
2022-11-07T05:35:40.130Z,20.87
2022-11-07T05:37:41.616Z,20.87
2022-11-07T05:39:42.894Z,20.83
2022-11-07T05:41:44.221Z,20.81
2022-11-07T05:43:45.542Z,20.79
2022-11-07T05:45:46.853Z,20.78
2022-11-07T05:47:48.145Z,20.78
2022-11-07T05:49:49.408Z,20.77
2022-11-07T05:51:50.687Z,20.76
2022-11-07T05:53:51.975Z,20.76
2022-11-07T05:55:53.264Z,20.81
2022-11-07T05:57:55.849Z,20.83
2022-11-07T05:59:57.122Z,20.88
2022-11-07T06:01:58.518Z,20.92
2022-11-07T06:03:59.852Z,20.98
2022-11-07T06:06:01.144Z,21.02
2022-11-07T06:08:02.463Z,21.05
2022-11-07T06:10:03.757Z,21.06
2022-11-07T06:12:05.037Z,21.07
2022-11-07T06:14:06.373Z,21.09
2022-11-07T06:16:07.686Z,21.13
2022-11-07T06:18:09.008Z,21.14
2022-11-07T06:20:10.569Z,21.17
2022-11-07T06:22:12.144Z,21.19
2022-11-07T06:24:15.359Z,21.20
2022-11-07T06:26:17.216Z,21.20
2022-11-07T06:28:18.549Z,21.20
2022-11-07T06:30:19.874Z,21.19
2022-11-07T06:32:21.154Z,21.20
2022-11-07T06:34:22.430Z,21.18
2022-11-07T06:36:23.711Z,21.12
2022-11-07T06:38:25.062Z,21.08
2022-11-07T06:40:26.385Z,21.05
2022-11-07T06:42:27.716Z,21.03
2022-11-07T06:44:28.993Z,21.07
2022-11-07T06:46:30.278Z,20.99
2022-11-07T06:48:31.563Z,20.94
2022-11-07T06:50:32.918Z,20.89
2022-11-07T06:52:34.198Z,20.85
2022-11-07T06:54:35.543Z,20.82
2022-11-07T06:56:36.842Z,20.82
2022-11-07T06:58:38.168Z,20.78
2022-11-07T07:00:39.465Z,20.73
2022-11-07T07:05:02.093Z,20.64
2022-11-07T07:07:03.391Z,20.66
2022-11-07T07:09:06.890Z,20.69
2022-11-07T07:11:08.166Z,20.71
2022-11-07T07:13:09.481Z,20.72
2022-11-07T07:15:10.757Z,20.71
2022-11-07T07:17:12.693Z,20.73
2022-11-07T07:19:13.976Z,20.78
2022-11-07T07:21:15.274Z,20.84
2022-11-07T07:23:17.181Z,20.88
2022-11-07T07:25:18.645Z,20.96
2022-11-07T07:27:20.344Z,20.99
2022-11-07T07:29:21.629Z,21.01
2022-11-07T07:31:22.979Z,21.04
2022-11-07T07:33:24.501Z,21.09
2022-11-07T07:35:25.796Z,21.15
2022-11-07T07:37:27.267Z,21.17
2022-11-07T07:39:28.654Z,21.16
2022-11-07T07:41:29.969Z,21.17
2022-11-07T07:43:31.244Z,21.16
2022-11-07T07:45:32.541Z,21.16
2022-11-07T07:47:33.846Z,21.16
2022-11-07T07:49:35.117Z,21.14
2022-11-07T07:51:36.407Z,21.15
2022-11-07T07:53:37.724Z,21.14
2022-11-07T07:55:39.023Z,21.11
2022-11-07T07:57:40.357Z,21.11
2022-11-07T07:59:41.689Z,21.07
2022-11-07T08:01:43.048Z,21.03
2022-11-07T08:04:00.587Z,20.98
2022-11-07T08:06:02.538Z,20.94
2022-11-07T08:08:03.847Z,20.92
2022-11-07T08:10:26.949Z,20.92
2022-11-07T08:12:26.421Z,20.92
2022-11-07T08:14:27.714Z,20.12
2022-11-07T08:16:29.046Z,18.90
2022-11-07T08:18:30.677Z,19.00
2022-11-07T08:20:31.944Z,19.50
2022-11-07T08:22:33.283Z,19.85
2022-11-07T08:24:34.629Z,20.04
2022-11-07T08:26:35.971Z,20.15
2022-11-07T08:28:37.293Z,20.19
2022-11-07T08:30:38.589Z,20.25
2022-11-07T08:32:39.896Z,20.31
2022-11-07T08:34:41.151Z,20.40
2022-11-07T08:36:42.487Z,20.50
2022-11-07T08:38:43.830Z,20.63
2022-11-07T08:40:45.147Z,20.75
2022-11-07T08:42:46.480Z,20.85
2022-11-07T08:44:47.782Z,20.95
2022-11-07T08:46:49.266Z,21.06
2022-11-07T08:48:51.085Z,21.16
2022-11-07T08:50:52.354Z,21.25
2022-11-07T08:52:55.897Z,21.32
2022-11-07T08:55:01.014Z,21.36
2022-11-07T08:57:02.294Z,19.97
2022-11-07T08:59:03.693Z,19.43
2022-11-07T09:01:05.015Z,19.25
2022-11-07T09:05:28.321Z,20.21
2022-11-07T09:07:29.674Z,21.59
2022-11-07T09:09:30.988Z,22.22
2022-11-07T09:11:32.281Z,22.32
2022-11-07T09:13:33.552Z,22.62
2022-11-07T09:15:34.830Z,22.83
2022-11-07T09:17:36.110Z,23.05
2022-11-07T09:19:37.385Z,23.06
2022-11-07T09:21:38.649Z,22.64
2022-11-07T09:23:40.339Z,22.32
2022-11-07T09:25:41.642Z,22.83
2022-11-07T09:27:43.121Z,23.13
2022-11-07T09:29:44.465Z,23.27
2022-11-07T09:31:45.745Z,23.22
2022-11-07T09:33:47.023Z,23.06
2022-11-07T09:35:48.408Z,22.92
2022-11-07T09:37:49.735Z,22.17
2022-11-07T09:39:51.246Z,21.91
2022-11-07T09:41:52.564Z,21.98
2022-11-07T09:43:53.917Z,21.95
2022-11-07T09:45:55.185Z,22.04
2022-11-07T09:47:56.507Z,22.07
2022-11-07T09:49:57.785Z,21.75
2022-11-07T09:51:59.145Z,21.18
2022-11-07T09:54:00.425Z,21.45
2022-11-07T09:56:01.790Z,21.64
2022-11-07T09:58:03.370Z,21.57
2022-11-07T10:00:04.693Z,21.15
2022-11-07T10:02:06.041Z,21.24
2022-11-07T10:06:28.636Z,22.31
2022-11-07T10:08:29.910Z,22.42
2022-11-07T10:10:31.546Z,22.61
2022-11-07T10:12:32.884Z,22.46
2022-11-07T10:14:34.169Z,22.19
2022-11-07T10:16:35.442Z,21.76
2022-11-07T10:18:36.717Z,21.58
2022-11-07T10:20:37.993Z,21.62
2022-11-07T10:22:39.269Z,21.69
2022-11-07T10:24:40.553Z,21.77
2022-11-07T10:26:41.857Z,21.96
2022-11-07T10:28:43.134Z,22.09
2022-11-07T10:30:44.473Z,22.11
2022-11-07T10:32:48.488Z,22.54
2022-11-07T10:34:54.121Z,22.95
2022-11-07T10:36:56.000Z,23.26
2022-11-07T10:38:57.291Z,23.47
2022-11-07T10:40:58.630Z,23.50
2022-11-07T10:42:59.921Z,23.56
2022-11-07T10:45:01.225Z,23.07
2022-11-07T10:47:03.546Z,22.68
2022-11-07T10:49:04.842Z,21.34
2022-11-07T10:51:06.450Z,20.72
2022-11-07T10:53:09.800Z,21.07
2022-11-07T10:55:11.152Z,21.70
2022-11-07T10:57:12.423Z,22.60
2022-11-07T10:59:14.253Z,23.07
2022-11-07T11:01:15.561Z,23.33
2022-11-07T11:03:17.057Z,23.49
2022-11-07T11:05:18.462Z,23.55
2022-11-07T11:07:24.204Z,23.83
2022-11-07T11:09:28.506Z,23.62
2022-11-07T11:11:30.006Z,23.62
2022-11-07T11:13:31.334Z,23.64
2022-11-07T11:15:35.728Z,23.48
2022-11-07T11:17:37.310Z,22.92
2022-11-07T11:19:38.586Z,22.64
2022-11-07T11:21:40.478Z,22.47
2022-11-07T11:23:41.752Z,22.37
2022-11-07T11:25:43.014Z,22.27
2022-11-07T11:27:44.307Z,22.18
2022-11-07T11:29:45.609Z,22.09
2022-11-07T11:31:46.928Z,22.05
2022-11-07T11:33:48.201Z,22.00
2022-11-07T11:35:49.471Z,21.96
2022-11-07T11:37:51.079Z,21.92
2022-11-07T11:39:52.357Z,21.90
2022-11-07T11:41:53.846Z,21.86
2022-11-07T11:43:55.125Z,21.84
2022-11-07T11:45:56.394Z,21.77
2022-11-07T11:47:57.706Z,21.87
2022-11-07T11:49:59.062Z,21.93
2022-11-07T11:52:00.369Z,21.95
2022-11-07T11:54:01.651Z,21.94
2022-11-07T11:56:03.117Z,21.93
2022-11-07T11:58:04.719Z,21.92
2022-11-07T12:00:06.081Z,21.91
2022-11-07T12:02:07.525Z,21.89
2022-11-07T12:04:08.840Z,21.89
2022-11-07T12:06:11.710Z,21.85
2022-11-07T12:08:13.210Z,21.81
2022-11-07T12:10:14.499Z,21.79
2022-11-07T12:12:15.774Z,21.76
2022-11-07T12:14:17.058Z,21.77
2022-11-07T12:16:18.366Z,22.00
2022-11-07T12:18:19.632Z,20.78
2022-11-07T12:20:20.987Z,19.88
2022-11-07T12:22:22.565Z,19.63
2022-11-07T12:24:24.136Z,19.50
2022-11-07T12:26:25.427Z,20.34
2022-11-07T12:28:26.706Z,21.10
2022-11-07T12:30:28.481Z,21.29
2022-11-07T12:32:29.801Z,21.37
2022-11-07T12:34:31.082Z,21.39
2022-11-07T12:36:34.681Z,21.35
2022-11-07T12:38:36.021Z,21.37
2022-11-07T12:40:37.347Z,21.29
2022-11-07T12:42:38.629Z,21.28
2022-11-07T12:44:39.945Z,21.36
2022-11-07T12:46:41.429Z,21.42
2022-11-07T12:48:42.721Z,21.43
2022-11-07T12:50:43.998Z,21.39
2022-11-07T12:52:45.462Z,21.43
2022-11-07T12:54:46.768Z,21.45
2022-11-07T12:56:48.142Z,21.43
2022-11-07T12:58:49.477Z,21.41
2022-11-07T13:00:50.808Z,21.38
2022-11-07T13:02:52.135Z,21.41
2022-11-07T13:04:53.520Z,21.40
2022-11-07T13:06:54.803Z,21.37
2022-11-07T13:08:56.077Z,21.33
2022-11-07T13:10:57.468Z,21.34
2022-11-07T13:12:58.774Z,21.38
2022-11-07T13:15:00.165Z,21.37
2022-11-07T13:17:01.451Z,21.38
2022-11-07T13:19:02.783Z,21.41
2022-11-07T13:21:04.127Z,21.44
2022-11-07T13:23:05.422Z,21.45
2022-11-07T13:25:09.352Z,21.47
2022-11-07T13:27:11.897Z,21.49
2022-11-07T13:29:13.198Z,21.50
2022-11-07T13:31:14.521Z,21.50
2022-11-07T13:33:16.049Z,21.50
2022-11-07T13:35:17.580Z,21.50
2022-11-07T13:37:18.926Z,21.51
2022-11-07T13:39:20.225Z,21.49
2022-11-07T13:41:21.581Z,21.48
2022-11-07T13:43:22.878Z,21.44
2022-11-07T13:45:24.147Z,21.44
2022-11-07T13:47:26.270Z,21.42
2022-11-07T13:49:27.546Z,21.41
2022-11-07T13:51:28.955Z,21.39
2022-11-07T13:53:30.414Z,21.34
2022-11-07T13:55:31.754Z,21.31
2022-11-07T13:57:33.045Z,21.24
2022-11-07T13:59:36.788Z,21.18
2022-11-07T14:01:38.434Z,21.15
2022-11-07T14:03:39.814Z,21.13
2022-11-07T14:05:41.093Z,21.12
2022-11-07T14:07:43.371Z,21.10
2022-11-07T14:09:44.721Z,21.10
2022-11-07T14:11:46.013Z,21.10
2022-11-07T14:13:47.359Z,21.10
2022-11-07T14:15:48.746Z,21.09
2022-11-07T14:17:50.107Z,21.11
2022-11-07T14:19:51.390Z,21.18
2022-11-07T14:21:52.697Z,21.22
2022-11-07T14:23:53.969Z,21.22
2022-11-07T14:25:55.881Z,21.25
2022-11-07T14:27:57.214Z,21.28
2022-11-07T14:29:58.542Z,21.30
2022-11-07T14:31:59.957Z,21.30
2022-11-07T14:34:01.226Z,21.32
2022-11-07T14:36:02.509Z,21.36
2022-11-07T14:38:03.825Z,21.35
2022-11-07T14:40:06.394Z,21.34
2022-11-07T14:42:07.688Z,21.34
2022-11-07T14:44:08.997Z,21.35
2022-11-07T14:46:14.241Z,21.35
2022-11-07T14:48:16.092Z,21.36
2022-11-07T14:50:17.857Z,21.36
2022-11-07T14:52:19.124Z,21.36
2022-11-07T14:54:21.201Z,21.35
2022-11-07T14:56:22.577Z,21.36
2022-11-07T14:58:24.061Z,21.36
2022-11-07T15:00:25.357Z,21.36
2022-11-07T15:02:26.726Z,21.36
2022-11-07T15:04:28.097Z,21.39
2022-11-07T15:06:29.514Z,21.40
2022-11-07T15:08:30.851Z,21.39
2022-11-07T15:10:32.205Z,21.41
2022-11-07T15:12:33.544Z,21.41
2022-11-07T15:14:35.112Z,21.41
2022-11-07T15:16:36.450Z,21.42
2022-11-07T15:18:37.956Z,21.42
2022-11-07T15:20:39.885Z,21.42
2022-11-07T15:22:41.193Z,21.43
2022-11-07T15:24:42.609Z,21.44
2022-11-07T15:26:46.978Z,21.43
2022-11-07T15:28:48.351Z,21.42
2022-11-07T15:30:52.890Z,21.41
2022-11-07T15:32:54.421Z,21.40
2022-11-07T15:35:29.768Z,21.39
2022-11-07T15:37:18.470Z,21.39
2022-11-07T15:39:19.750Z,21.37
2022-11-07T15:41:21.074Z,21.37
2022-11-07T15:43:22.476Z,21.36
2022-11-07T15:45:23.796Z,21.35
2022-11-07T15:47:25.065Z,21.32
2022-11-07T15:49:26.345Z,21.29
2022-11-07T15:51:27.627Z,21.28
2022-11-07T15:53:28.895Z,21.27
2022-11-07T15:55:30.173Z,21.25
2022-11-07T15:57:31.450Z,20.59
2022-11-07T15:59:32.782Z,21.22
2022-11-07T16:01:37.014Z,21.22
2022-11-07T16:03:38.343Z,21.21
2022-11-07T16:05:39.677Z,21.20
2022-11-07T16:07:40.982Z,21.21
2022-11-07T16:09:42.501Z,21.21
2022-11-07T16:11:43.825Z,21.22
2022-11-07T16:13:45.091Z,21.21
2022-11-07T16:15:46.386Z,21.21
2022-11-07T16:17:47.676Z,21.23
2022-11-07T16:19:49.140Z,21.23
2022-11-07T16:21:50.633Z,21.26
2022-11-07T16:23:52.598Z,21.28
2022-11-07T16:25:53.924Z,21.28
2022-11-07T16:27:55.200Z,21.29
2022-11-07T16:29:56.482Z,21.30
2022-11-07T16:31:57.809Z,21.32
2022-11-07T16:33:59.163Z,21.33
2022-11-07T16:36:00.489Z,21.34
2022-11-07T16:38:01.800Z,21.32
2022-11-07T16:40:03.133Z,21.34
2022-11-07T16:42:04.408Z,21.36
2022-11-07T16:44:08.925Z,21.34
2022-11-07T16:46:13.091Z,21.35
2022-11-07T16:48:14.696Z,21.35
2022-11-07T16:50:19.283Z,21.36
2022-11-07T16:52:20.641Z,21.37
2022-11-07T16:54:21.939Z,21.36
2022-11-07T16:56:23.235Z,21.35
2022-11-07T16:58:24.582Z,21.35
2022-11-07T17:00:25.944Z,21.35
2022-11-07T17:02:27.534Z,21.34
2022-11-07T17:04:28.933Z,21.31
2022-11-07T17:06:30.248Z,21.35
2022-11-07T17:08:31.563Z,21.31
2022-11-07T17:10:32.834Z,21.32
2022-11-07T17:12:34.436Z,21.32
2022-11-07T17:14:38.709Z,21.31
2022-11-07T17:16:39.993Z,21.31
2022-11-07T17:18:41.324Z,21.30
2022-11-07T17:20:50.855Z,21.31
2022-11-07T17:22:53.130Z,21.30
2022-11-07T17:24:54.414Z,21.29
2022-11-07T17:26:58.392Z,21.30
2022-11-07T17:28:59.729Z,21.30
2022-11-07T17:31:01.030Z,21.27
2022-11-07T17:33:03.569Z,21.26
2022-11-07T17:35:30.608Z,21.27
2022-11-07T17:37:26.114Z,21.26
2022-11-07T17:39:27.848Z,21.28
2022-11-07T17:41:29.952Z,21.27
2022-11-07T17:43:31.229Z,21.26
2022-11-07T17:45:32.535Z,21.26
2022-11-07T17:47:34.779Z,21.24
2022-11-07T17:49:36.052Z,21.24
2022-11-07T17:51:37.882Z,21.25
2022-11-07T17:53:44.950Z,21.25
2022-11-07T17:55:46.258Z,21.25
2022-11-07T17:57:47.545Z,21.27
2022-11-07T17:59:49.345Z,21.29
2022-11-07T18:01:53.912Z,21.26
2022-11-07T18:03:55.264Z,21.26
2022-11-07T18:05:56.546Z,21.27
2022-11-07T18:08:00.530Z,21.27
2022-11-07T18:10:02.102Z,21.27
2022-11-07T18:12:06.497Z,21.29
2022-11-07T18:14:07.850Z,21.28
2022-11-07T18:16:09.126Z,21.28
2022-11-07T18:18:11.151Z,21.29
2022-11-07T18:20:12.762Z,21.31
2022-11-07T18:22:14.042Z,21.29
2022-11-07T18:24:15.373Z,21.29
2022-11-07T18:26:17.314Z,21.26
2022-11-07T18:28:18.956Z,21.23
2022-11-07T18:30:20.513Z,21.16
2022-11-07T18:32:21.802Z,21.07
2022-11-07T18:34:23.086Z,21.03
2022-11-07T18:36:24.650Z,20.98
2022-11-07T18:38:25.908Z,20.96
2022-11-07T18:40:27.223Z,20.94
2022-11-07T18:42:29.436Z,20.95
2022-11-07T18:44:30.772Z,20.96
2022-11-07T18:46:35.258Z,20.98
2022-11-07T18:48:42.325Z,21.02
2022-11-07T18:50:43.624Z,21.09
2022-11-07T18:52:48.866Z,21.14
2022-11-07T18:54:52.818Z,21.16
2022-11-07T18:56:54.150Z,21.19
2022-11-07T18:58:55.453Z,21.22
2022-11-07T19:01:02.608Z,21.25
2022-11-07T19:03:06.840Z,21.28
2022-11-07T19:05:11.253Z,21.31
2022-11-07T19:07:12.556Z,21.32
2022-11-07T19:09:19.968Z,21.34
2022-11-07T19:11:21.299Z,21.35
2022-11-07T19:13:22.557Z,21.34
2022-11-07T19:15:29.681Z,21.36
2022-11-07T19:17:33.779Z,21.36
2022-11-07T19:19:39.005Z,21.38
2022-11-07T19:21:43.747Z,21.39
2022-11-07T19:23:45.202Z,21.39
2022-11-07T19:25:49.181Z,21.38
2022-11-07T19:27:51.621Z,21.39
2022-11-07T19:29:54.138Z,21.39
2022-11-07T19:31:58.240Z,21.39
2022-11-07T19:33:59.569Z,21.40
2022-11-07T19:36:00.881Z,21.37
2022-11-07T19:38:09.128Z,21.36
2022-11-07T19:40:13.226Z,21.35
2022-11-07T19:42:14.521Z,21.36
2022-11-07T19:44:21.657Z,21.35
2022-11-07T19:46:22.973Z,21.35
2022-11-07T19:48:24.262Z,21.34
2022-11-07T19:50:25.577Z,21.33
2022-11-07T19:52:26.857Z,21.31
2022-11-07T19:54:28.146Z,21.27
2022-11-07T19:56:29.486Z,21.25
2022-11-07T19:58:30.766Z,21.22
2022-11-07T20:00:37.840Z,21.21
2022-11-07T20:02:44.386Z,21.11
2022-11-07T20:04:49.122Z,21.11
2022-11-07T20:06:54.522Z,21.13
2022-11-07T20:08:58.922Z,21.15
2022-11-07T20:11:00.208Z,21.15
2022-11-07T20:13:01.548Z,21.17
2022-11-07T20:15:02.866Z,21.17
2022-11-07T20:17:04.132Z,21.16
2022-11-07T20:19:06.043Z,21.18
2022-11-07T20:21:07.582Z,21.20
2022-11-07T20:23:10.093Z,21.23
2022-11-07T20:25:11.385Z,21.25
2022-11-07T20:27:13.637Z,21.26
2022-11-07T20:29:15.621Z,21.27
2022-11-07T20:31:16.915Z,21.31
2022-11-07T20:33:18.626Z,21.32
2022-11-07T20:35:20.225Z,21.31
2022-11-07T20:37:21.679Z,21.33
2022-11-07T20:39:22.953Z,21.35
2022-11-07T20:41:24.373Z,21.35
2022-11-07T20:43:29.055Z,21.37
2022-11-07T20:45:30.342Z,21.36
2022-11-07T20:47:31.828Z,21.35
2022-11-07T20:49:33.120Z,21.39
2022-11-07T20:51:34.466Z,21.39
2022-11-07T20:53:35.830Z,21.40
2022-11-07T20:55:37.100Z,21.41
2022-11-07T20:57:38.400Z,21.40
2022-11-07T20:59:41.303Z,21.39
2022-11-07T21:01:42.904Z,21.41
2022-11-07T21:03:44.236Z,21.42
2022-11-07T21:05:45.530Z,21.39
2022-11-07T21:07:48.281Z,21.39
2022-11-07T21:09:49.674Z,21.38
2022-11-07T21:11:51.111Z,21.37
2022-11-07T21:13:53.363Z,21.37
2022-11-07T21:15:54.825Z,21.37
2022-11-07T21:17:56.081Z,21.36
2022-11-07T21:19:57.381Z,21.32
2022-11-07T21:21:58.661Z,21.32
2022-11-07T21:23:59.968Z,21.28
2022-11-07T21:26:01.291Z,21.28
2022-11-07T21:28:02.571Z,21.27
2022-11-07T21:30:03.901Z,21.26
2022-11-07T21:32:07.408Z,21.26
2022-11-07T21:34:09.650Z,21.25
2022-11-07T21:36:11.312Z,21.24
2022-11-07T21:38:12.634Z,21.22
2022-11-07T21:40:13.980Z,21.21
2022-11-07T21:42:15.334Z,21.21
2022-11-07T21:44:16.674Z,21.20
2022-11-07T21:46:18.463Z,21.19
2022-11-07T21:48:19.802Z,20.38
2022-11-07T21:50:43.689Z,21.17
2022-11-07T21:52:42.409Z,21.18
2022-11-07T21:54:44.222Z,20.87
2022-11-07T21:56:45.569Z,21.15
2022-11-07T21:58:46.881Z,21.14
2022-11-07T22:00:48.173Z,21.16
2022-11-07T22:02:49.522Z,21.17
2022-11-07T22:04:50.798Z,21.18
2022-11-07T22:06:52.150Z,21.17
2022-11-07T22:08:53.997Z,21.18
2022-11-07T22:10:55.285Z,21.19
2022-11-07T22:12:56.561Z,21.20
2022-11-07T22:14:57.879Z,21.22
2022-11-07T22:16:59.157Z,21.24
2022-11-07T22:19:00.442Z,21.22
2022-11-07T22:21:01.717Z,21.24
2022-11-07T22:23:02.984Z,19.95
2022-11-07T22:25:04.814Z,19.44
2022-11-07T22:27:06.094Z,19.90
2022-11-07T22:29:07.384Z,21.37
2022-11-07T22:31:08.740Z,22.13
2022-11-07T22:33:10.061Z,22.70
2022-11-07T22:35:11.339Z,22.77
2022-11-07T22:37:12.624Z,23.00
2022-11-07T22:39:13.962Z,22.99
2022-11-07T22:41:15.217Z,22.95
2022-11-07T22:43:16.745Z,22.89
2022-11-07T22:45:18.184Z,23.04
2022-11-07T22:47:19.469Z,22.98
2022-11-07T22:49:20.741Z,23.09
2022-11-07T22:51:22.158Z,22.92
2022-11-07T22:53:23.502Z,23.17
2022-11-07T22:55:24.814Z,23.07
2022-11-07T22:57:26.094Z,23.21
2022-11-07T22:59:27.417Z,23.31
2022-11-07T23:01:28.755Z,23.20
2022-11-07T23:03:30.271Z,23.14
2022-11-07T23:05:31.578Z,23.11
2022-11-07T23:07:32.865Z,23.20
2022-11-07T23:09:34.148Z,23.46
2022-11-07T23:11:50.795Z,23.45
2022-11-07T23:13:52.145Z,23.49
2022-11-07T23:15:53.419Z,23.31
2022-11-07T23:17:54.704Z,23.14
2022-11-07T23:19:56.001Z,23.03
2022-11-07T23:21:57.304Z,23.73
2022-11-07T23:23:58.591Z,22.91
2022-11-07T23:26:00.602Z,23.28
2022-11-07T23:28:01.929Z,23.28
2022-11-07T23:30:03.208Z,23.01
2022-11-07T23:32:05.202Z,22.47
2022-11-07T23:34:06.553Z,21.57
2022-11-07T23:36:07.848Z,20.46
2022-11-07T23:38:09.115Z,20.19
2022-11-07T23:40:10.392Z,21.13
2022-11-07T23:42:11.702Z,21.72
2022-11-07T23:44:13.064Z,22.03
2022-11-07T23:46:32.881Z,22.17
2022-11-07T23:48:52.794Z,22.27
2022-11-07T23:51:02.936Z,22.94
2022-11-07T23:53:24.332Z,23.22
2022-11-07T23:55:40.945Z,22.56
2022-11-07T23:58:01.063Z,23.02
